Time;durP1;ratioP1;P1;durP2;ratioP2;P2;SDS_P1;SDS_P2;PMS_P1;PMS_P2;Temp;Humidity;BMP_temperature;BMP_pressure;BME280_temperature;BME280_humidity;BME280_pressure;Samples;Min_cycle;Max_cycle;Signal;HPM_P1;HPM_P2
2023/01/24 00:01:55;;;;;;;45.20;9.23;;;;;;;21.70;58.29;101413.53;7313214;19;129003;-38
2023/01/24 00:04:21;;;;;;;24.03;8.13;;;;;;;21.69;58.31;101417.06;7312992;19;129607;-38
2023/01/24 00:06:46;;;;;;;26.73;7.40;;;;;;;21.69;58.12;101417.06;7309828;19;129319;-38
2023/01/24 00:09:11;;;;;;;20.17;7.13;;;;;;;21.68;58.09;101420.63;7312731;19;128877;-38
2023/01/24 00:11:37;;;;;;;40.60;9.60;;;;;;;21.66;58.24;101420.72;7313183;19;128891;-39
2023/01/24 00:14:03;;;;;;;34.10;8.20;;;;;;;21.65;57.67;101424.25;7311601;19;129325;-38
2023/01/24 00:16:28;;;;;;;31.97;8.40;;;;;;;21.63;58.02;101420.94;7311074;19;129438;-39
2023/01/24 00:18:54;;;;;;;28.93;8.07;;;;;;;21.65;57.81;101429.50;7312501;19;129038;-40
2023/01/24 00:21:22;;;;;;;31.67;8.33;;;;;;;21.63;57.70;101427.94;7312690;19;129232;-39
2023/01/24 00:23:50;;;;;;;23.50;7.93;;;;;;;21.61;58.35;101430.66;7313125;19;129239;-38
2023/01/24 00:26:17;;;;;;;24.40;7.50;;;;;;;21.52;58.32;101404.19;7310191;19;132048;-40
2023/01/24 00:28:42;;;;;;;23.00;8.23;;;;;;;21.61;58.13;101417.56;7312323;19;129025;-40
2023/01/24 00:31:08;;;;;;;45.27;9.10;;;;;;;21.59;58.91;101422.03;7310743;19;129126;-40
2023/01/24 00:33:33;;;;;;;23.50;7.43;;;;;;;21.62;57.82;101416.63;7310309;19;129756;-38
2023/01/24 00:35:59;;;;;;;16.08;7.75;;;;;;;21.62;58.52;101419.22;7310986;19;129430;-39
2023/01/24 00:38:24;;;;;;;29.17;8.20;;;;;;;21.49;57.67;101393.91;7311651;19;129726;-38
2023/01/24 00:40:50;;;;;;;40.93;9.00;;;;;;;21.60;57.86;101415.84;7312034;19;129382;-38
2023/01/24 00:43:16;;;;;;;22.98;7.35;;;;;;;21.65;57.75;101418.22;7312277;19;130295;-39
2023/01/24 00:45:44;;;;;;;28.02;8.23;;;;;;;21.82;57.08;101421.47;7310102;19;130355;-40
2023/01/24 00:48:09;;;;;;;31.75;8.15;;;;;;;21.98;56.44;101428.38;7309961;19;129051;-39
2023/01/24 00:50:35;;;;;;;41.72;9.70;;;;;;;22.12;55.84;101428.31;7310587;19;129791;-37
2023/01/24 00:53:01;;;;;;;26.03;7.80;;;;;;;22.21;55.78;101430.34;7307713;19;130444;-37
2023/01/24 00:55:26;;;;;;;88.78;13.88;;;;;;;22.45;55.19;101436.59;7309197;19;129585;-39
2023/01/24 00:57:52;;;;;;;28.48;7.47;;;;;;;22.59;54.25;101433.97;7311568;19;128955;-39
2023/01/24 01:00:17;;;;;;;33.42;8.38;;;;;;;22.71;54.08;101436.59;7311824;19;129669;-40
2023/01/24 01:02:43;;;;;;;15.90;6.82;;;;;;;22.76;53.75;101439.75;7309826;19;131203;-40
2023/01/24 01:05:08;;;;;;;29.15;8.23;;;;;;;22.67;53.79;101434.28;7309400;19;129292;-40
2023/01/24 01:07:34;;;;;;;42.75;9.98;;;;;;;22.66;54.46;101440.47;7305996;19;129121;-37
2023/01/24 01:09:59;;;;;;;16.92;7.03;;;;;;;22.60;54.42;101438.25;7311913;19;130116;-38
2023/01/24 01:12:25;;;;;;;25.93;8.10;;;;;;;22.52;54.94;101440.50;7310417;19;129727;-39
2023/01/24 01:14:50;;;;;;;29.67;8.25;;;;;;;22.49;54.58;101432.84;7308794;19;129189;-40
2023/01/24 01:17:16;;;;;;;38.07;8.20;;;;;;;22.41;55.02;101432.53;7309998;19;129301;-38
2023/01/24 01:19:42;;;;;;;24.17;7.60;;;;;;;22.29;55.54;101433.31;7311908;19;128911;-38
2023/01/24 01:22:07;;;;;;;20.27;7.07;;;;;;;22.22;55.15;101438.09;7311231;19;129293;-40
2023/01/24 01:24:32;;;;;;;24.35;7.60;;;;;;;22.16;55.62;101437.66;7308534;19;130213;-39
2023/01/24 01:26:59;;;;;;;36.97;8.93;;;;;;;22.09;56.19;101438.97;7308399;19;129426;-40
2023/01/24 01:29:24;;;;;;;28.20;8.05;;;;;;;21.95;56.51;101408.44;7310718;19;129363;-38
2023/01/24 01:31:49;;;;;;;28.47;7.90;;;;;;;22.00;56.25;101429.13;7310010;19;131013;-38
2023/01/24 01:34:15;;;;;;;25.38;7.53;;;;;;;21.93;56.50;101434.72;7309408;19;129365;-38
2023/01/24 01:36:40;;;;;;;33.33;8.10;;;;;;;21.87;56.88;101435.13;7309064;19;129340;-39
2023/01/24 01:39:06;;;;;;;20.65;7.43;;;;;;;21.83;56.35;101431.00;7310639;19;128970;-38
2023/01/24 01:41:32;;;;;;;15.57;6.20;;;;;;;21.79;56.66;101424.28;7310353;19;130183;-40
2023/01/24 01:47:02;;;;;;;27.02;8.18;;;;;;;21.71;57.48;101430.91;7308096;19;128891;-39
2023/01/24 01:49:28;;;;;;;37.03;8.25;;;;;;;21.71;57.42;101429.13;7308862;19;129309;-38
2023/01/24 01:52:03;;;;;;;35.80;8.88;;;;;;;21.66;57.57;101423.34;7310696;19;129558;-39
2023/01/24 01:54:36;;;;;;;30.95;8.25;;;;;;;21.64;57.55;101419.97;7307742;19;129639;-38
2023/01/24 01:57:07;;;;;;;27.10;7.72;;;;;;;21.59;57.61;101414.19;7309153;19;128843;-40
2023/01/24 01:59:47;;;;;;;26.63;7.38;;;;;;;21.58;57.38;101412.53;7309146;19;129665;-37
2023/01/24 02:02:12;;;;;;;23.83;7.75;;;;;;;21.57;58.06;101413.44;7309333;19;129181;-39
2023/01/24 02:04:44;;;;;;;29.77;8.57;;;;;;;21.53;58.08;101411.97;7306601;19;129059;-38
2023/01/24 02:07:16;;;;;;;28.17;8.10;;;;;;;21.52;58.12;101405.03;7307612;19;129539;-39
2023/01/24 02:09:43;;;;;;;25.63;8.45;;;;;;;21.50;57.96;101398.22;7310195;19;128973;-38
2023/01/24 02:12:13;;;;;;;19.35;6.85;;;;;;;21.49;57.82;101400.00;7308571;19;129129;-39
2023/01/24 02:17:24;;;;;;;48.92;10.70;;;;;;;21.38;58.18;101375.44;7306755;19;129103;-38
2023/01/24 02:19:55;;;;;;;28.35;8.30;;;;;;;21.61;57.81;101398.38;7309806;19;129662;-39
2023/01/24 02:22:53;;;;;;;29.38;7.60;;;;;;;21.72;57.19;101396.78;7308483;19;130206;-39
2023/01/24 02:25:32;;;;;;;47.53;9.95;;;;;;;21.88;56.33;101402.75;7305137;19;129875;-40
2023/01/24 02:27:59;;;;;;;34.00;8.70;;;;;;;22.11;55.60;101398.69;7304768;19;129478;-38
2023/01/24 02:30:24;;;;;;;25.65;8.15;;;;;;;22.14;55.59;101377.50;7309360;19;129457;-38
2023/01/24 02:32:50;;;;;;;34.05;8.43;;;;;;;22.44;55.33;101393.00;7309398;19;131328;-38
2023/01/24 02:35:41;;;;;;;29.23;8.00;;;;;;;22.55;54.78;101395.78;7305203;19;130125;-38
2023/01/24 02:38:16;;;;;;;29.45;8.05;;;;;;;22.61;53.76;101383.09;7308761;19;129388;-39
2023/01/24 02:40:43;;;;;;;74.13;12.23;;;;;;;22.73;53.95;101397.16;7307926;19;129535;-35
2023/01/24 02:43:13;;;;;;;17.67;7.63;;;;;;;22.55;54.63;101382.66;7307814;19;129264;-38
2023/01/24 02:45:38;;;;;;;26.55;7.85;;;;;;;22.56;54.32;101400.09;7307451;19;129625;-39
2023/01/24 02:48:04;;;;;;;25.65;7.40;;;;;;;22.55;54.22;101403.63;7305468;19;129000;-38
2023/01/24 02:53:30;;;;;;;28.80;7.93;;;;;;;22.38;55.37;101406.53;7306114;19;129359;-40
2023/01/24 02:58:44;;;;;;;25.55;7.72;;;;;;;22.20;55.11;101412.94;7306706;19;130594;-36
2023/01/24 03:01:11;;;;;;;28.73;8.20;;;;;;;22.15;56.06;101410.63;7307875;19;128843;-40
2023/01/24 03:03:37;;;;;;;40.88;9.60;;;;;;;22.02;56.22;101398.41;7306538;19;129879;-39
2023/01/24 03:06:02;;;;;;;34.38;8.13;;;;;;;21.98;56.47;101412.66;7305128;19;130276;-38
2023/01/24 03:08:31;;;;;;;26.00;7.77;;;;;;;21.90;56.60;101410.50;7307032;19;128866;-39
2023/01/24 03:10:57;;;;;;;36.08;8.85;;;;;;;21.87;56.86;101406.31;7306976;19;130965;-39
2023/01/24 03:35:18;;;;;;;57.38;11.02;;;;;;;21.52;57.78;101420.72;7307736;19;129889;-35
2023/01/24 03:40:28;;;;;;;29.60;8.70;;;;;;;21.48;57.75;101418.41;7312682;19;129474;-40
2023/01/24 03:42:53;;;;;;;38.23;9.20;;;;;;;21.45;57.66;101416.81;7312902;19;129101;-39
2023/01/24 03:45:27;;;;;;;69.72;12.57;;;;;;;21.51;58.03;101415.59;7308762;19;129060;-38
2023/01/24 03:47:56;;;;;;;38.53;8.80;;;;;;;21.64;57.57;101417.38;7310340;19;130137;-40
2023/01/24 03:53:16;;;;;;;30.05;8.57;;;;;;;22.02;56.24;101419.34;7313694;19;129071;-40
2023/01/24 03:55:42;;;;;;;28.17;7.82;;;;;;;22.14;55.80;101413.34;7310800;19;129683;-40
2023/01/24 03:58:09;;;;;;;38.20;8.88;;;;;;;22.28;54.98;101410.69;7311762;19;129891;-40
2023/01/24 04:00:35;;;;;;;34.33;7.78;;;;;;;22.50;55.08;101410.94;7308732;19;131058;-40
2023/01/24 04:03:01;;;;;;;36.38;8.73;;;;;;;22.57;54.05;101420.97;7313026;19;129401;-41
2023/01/24 04:05:27;;;;;;;64.93;12.75;;;;;;;22.62;54.00;101405.75;7305678;19;129309;-39
2023/01/24 04:07:55;;;;;;;29.80;7.88;;;;;;;22.72;54.25;101416.47;7311086;19;129286;-40
2023/01/24 04:10:22;;;;;;;38.00;8.95;;;;;;;22.66;53.67;101412.47;7311844;19;129521;-40
2023/01/24 04:12:47;;;;;;;22.50;7.13;;;;;;;22.65;54.02;101416.03;7312916;19;128897;-40
2023/01/24 04:15:20;;;;;;;35.45;8.45;;;;;;;22.56;54.14;101415.81;7308263;19;129286;-38
2023/01/24 04:17:46;;;;;;;27.08;7.57;;;;;;;22.53;54.75;101416.00;7312209;19;129249;-39
2023/01/24 04:20:13;;;;;;;40.87;8.60;;;;;;;22.45;54.41;101408.63;7311972;19;129210;-39
2023/01/24 04:22:38;;;;;;;;;;;;;;;22.38;55.31;101417.81;7313861;19;128903;-39
2023/01/24 04:25:04;;;;;;;25.87;7.57;;;;;;;22.27;54.88;101403.75;7309767;19;130148;-40
2023/01/24 04:27:29;;;;;;;44.60;10.50;;;;;;;22.20;55.30;101405.06;7308636;19;130510;-40
2023/01/24 04:29:54;;;;;;;71.97;10.97;;;;;;;22.11;55.33;101414.38;7312123;19;129055;-39
2023/01/24 04:32:20;;;;;;;30.03;7.97;;;;;;;22.04;56.20;101418.34;7311391;19;128842;-40
2023/01/24 04:34:45;;;;;;;19.83;6.93;;;;;;;22.03;56.27;101410.56;7310341;19;129683;-38
2023/01/24 04:37:10;;;;;;;28.03;8.03;;;;;;;22.11;56.11;101403.06;7311051;19;130128;-38
2023/01/24 04:39:36;;;;;;;34.75;8.27;;;;;;;22.61;54.40;101405.88;7312319;19;129170;-39
2023/01/24 04:42:01;;;;;;;31.40;7.87;;;;;;;23.02;52.43;101383.75;7310410;19;129146;-40
2023/01/24 04:44:26;;;;;;;43.97;9.37;;;;;;;23.64;51.48;101408.25;7310834;19;129770;-39
2023/01/24 04:46:52;;;;;;;26.63;7.45;;;;;;;23.98;50.54;101411.97;7310534;19;131427;-40
2023/01/24 04:49:17;;;;;;;27.33;7.50;;;;;;;24.21;49.38;101417.22;7311754;19;129098;-37
2023/01/24 04:51:43;;;;;;;24.40;7.03;;;;;;;24.27;49.40;101418.56;7312014;19;129499;-39
2023/01/24 04:54:10;;;;;;;31.70;7.70;;;;;;;24.40;49.17;101414.06;7310332;19;130060;-41
2023/01/24 04:56:35;;;;;;;39.15;8.68;;;;;;;24.60;49.04;101410.78;7306848;19;129541;-37
2023/01/24 04:59:01;;;;;;;32.07;6.73;;;;;;;24.54;48.83;101411.28;7310734;19;129687;-40
2023/01/24 05:01:26;;;;;;;27.52;7.47;;;;;;;24.61;48.74;101412.47;7308684;19;131126;-39
2023/01/24 05:03:58;;;;;;;61.63;10.75;;;;;;;24.62;48.68;101418.56;7308706;19;130213;-36
2023/01/24 05:06:24;;;;;;;34.47;7.90;;;;;;;24.64;48.50;101414.03;7304138;19;130109;-37
2023/01/24 05:08:49;;;;;;;42.10;8.47;;;;;;;24.66;49.01;101420.03;7310608;19;129782;-39
2023/01/24 05:11:14;;;;;;;41.93;7.87;;;;;;;24.67;48.82;101416.44;7304763;19;129492;-36
2023/01/24 05:13:40;;;;;;;37.27;8.20;;;;;;;24.65;48.35;101418.34;7309289;19;129471;-39
2023/01/24 05:16:05;;;;;;;27.55;6.70;;;;;;;24.68;49.09;101416.34;7307441;19;131258;-41
2023/01/24 05:18:31;;;;;;;39.30;8.00;;;;;;;24.66;48.37;101428.75;7311963;19;129730;-39
2023/01/24 05:21:07;;;;;;;47.73;9.07;;;;;;;24.65;48.64;101420.97;7300741;19;129285;-37
2023/01/24 05:23:32;;;;;;;32.67;7.95;;;;;;;24.73;48.18;101418.63;7307638;19;129509;-39
2023/01/24 05:25:59;;;;;;;101.67;14.37;;;;;;;24.76;48.61;101424.50;7303119;19;131197;-38
2023/01/24 05:28:24;;;;;;;31.25;7.35;;;;;;;24.73;48.24;101416.00;7306111;19;129120;-38
2023/01/24 05:30:50;;;;;;;29.80;7.20;;;;;;;24.67;48.18;101405.91;7310943;19;129632;-38
2023/01/24 05:33:15;;;;;;;29.38;7.38;;;;;;;24.78;48.03;101419.13;7303579;19;130751;-40
2023/01/24 05:35:43;;;;;;;34.80;7.22;;;;;;;24.81;48.26;101425.00;7304247;19;129527;-40
2023/01/24 05:38:08;;;;;;;31.27;6.60;;;;;;;24.65;48.53;101420.97;7309033;19;129597;-40
2023/01/24 05:40:33;;;;;;;27.47;7.27;;;;;;;24.65;48.72;101431.50;7306184;19;129434;-40
2023/01/24 05:42:59;;;;;;;42.00;7.88;;;;;;;24.48;49.43;101431.94;7309585;19;129081;-38
2023/01/24 05:45:24;;;;;;;40.00;8.37;;;;;;;24.29;49.68;101432.44;7307795;19;129774;-39
2023/01/24 05:47:50;;;;;;;37.07;8.13;;;;;;;24.03;50.30;101433.50;7304838;19;131147;-39
2023/01/24 05:50:15;;;;;;;32.20;7.40;;;;;;;23.91;50.81;101431.72;7309519;19;129588;-40
2023/01/24 05:52:40;;;;;;;25.77;6.83;;;;;;;23.83;50.50;101419.13;7308911;19;129722;-40
2023/01/24 05:55:06;;;;;;;41.25;8.18;;;;;;;23.93;50.43;101435.91;7301834;19;131257;-41
2023/01/24 05:57:32;;;;;;;34.80;8.03;;;;;;;23.87;50.63;101441.59;7307329;19;130877;-38
2023/01/24 05:59:57;;;;;;;27.57;7.00;;;;;;;23.91;50.43;101443.06;7308108;19;129129;-38
2023/01/24 06:02:22;;;;;;;34.57;8.07;;;;;;;23.87;50.79;101441.59;7307135;19;129266;-40
2023/01/24 06:04:48;;;;;;;37.73;7.70;;;;;;;23.94;50.20;101449.88;7302881;19;129974;-37
2023/01/24 06:07:13;;;;;;;31.25;7.38;;;;;;;23.91;50.73;101445.69;7307338;19;129560;-36
2023/01/24 06:09:38;;;;;;;75.00;11.93;;;;;;;23.96;50.51;101448.00;7306211;19;129329;-38
2023/01/24 06:12:04;;;;;;;55.10;9.70;;;;;;;23.99;50.20;101461.78;7304760;19;130736;-37
2023/01/24 06:14:29;;;;;;;30.77;7.37;;;;;;;24.01;50.00;101454.63;7303682;19;130426;-39
2023/01/24 06:16:55;;;;;;;35.60;7.87;;;;;;;24.02;50.63;101456.31;7308367;19;128983;-39
2023/01/24 06:19:20;;;;;;;25.40;7.10;;;;;;;24.06;50.21;101457.78;7308039;19;129524;-39
2023/01/24 06:21:57;;;;;;;29.20;6.80;;;;;;;24.12;50.10;101459.94;7306039;19;129374;-39
2023/01/24 06:24:25;;;;;;;50.53;9.00;;;;;;;24.07;49.85;101469.94;7303083;19;129178;-38
2023/01/24 06:26:51;;;;;;;39.63;7.97;;;;;;;23.94;50.34;101466.50;7303471;19;129192;-36
2023/01/24 06:29:19;;;;;;;17.05;6.68;;;;;;;23.83;51.24;101466.41;7303629;19;130392;-35
2023/01/24 06:32:05;;;;;;;28.50;7.63;;;;;;;23.68;51.45;101450.91;7307131;19;130803;-37
2023/01/24 06:34:36;;;;;;;30.67;7.70;;;;;;;23.78;51.39;101468.53;7306087;19;129203;-39
2023/01/24 06:37:14;;;;;;;48.92;8.85;;;;;;;23.79;50.79;101454.44;7306371;19;129388;-38
2023/01/24 06:39:49;;;;;;;33.85;8.15;;;;;;;23.82;50.61;101459.47;7308533;19;129831;-40
2023/01/24 06:42:16;;;;;;;30.08;7.03;;;;;;;23.82;50.68;101464.72;7308478;19;130943;-37
2023/01/24 06:44:41;;;;;;;24.40;6.57;;;;;;;23.91;51.09;101465.88;7306632;19;129397;-39
2023/01/24 06:47:10;;;;;;;29.93;7.37;;;;;;;23.99;50.24;101467.03;7306738;19;130405;-40
2023/01/24 06:49:35;;;;;;;35.95;8.00;;;;;;;24.00;50.92;101468.72;7308482;19;129493;-39
2023/01/24 06:52:01;;;;;;;28.87;6.63;;;;;;;24.13;50.10;101464.25;7314523;19;129570;-39
2023/01/24 06:54:26;;;;;;;30.23;7.20;;;;;;;24.16;49.88;101469.28;7312663;19;129746;-38
2023/01/24 06:56:51;;;;;;;31.92;7.95;;;;;;;24.17;50.08;101473.59;7314770;19;129084;-39
2023/01/24 06:59:17;;;;;;;44.83;7.97;;;;;;;24.05;50.09;101469.22;7314487;19;129605;-39
2023/01/24 07:01:42;;;;;;;14.30;6.00;;;;;;;23.94;50.63;101470.91;7316270;19;129517;-37
2023/01/24 07:04:07;;;;;;;36.23;7.63;;;;;;;23.83;51.24;101463.78;7312669;19;129398;-38
2023/01/24 07:06:33;;;;;;;26.38;7.07;;;;;;;23.85;51.28;101461.88;7314951;19;129501;-39
2023/01/24 07:08:58;;;;;;;49.27;9.00;;;;;;;23.84;50.81;101462.00;7314690;19;128940;-37
2023/01/24 07:11:24;;;;;;;30.77;7.30;;;;;;;23.87;51.00;101465.25;7315130;19;130138;-39
2023/01/24 07:13:49;;;;;;;28.60;7.30;;;;;;;23.87;51.05;101472.28;7314354;19;130243;-39
2023/01/24 07:16:14;;;;;;;27.77;6.90;;;;;;;23.88;51.30;101473.97;7313846;19;129050;-35
2023/01/24 07:18:40;;;;;;;20.57;6.63;;;;;;;23.87;51.04;101478.38;7315444;19;129166;-39
2023/01/24 07:21:07;;;;;;;26.17;7.00;;;;;;;23.95;50.51;101481.28;7314814;19;130093;-39
2023/01/24 07:23:34;;;;;;;26.88;7.05;;;;;;;24.02;50.94;101477.31;7313694;19;129281;-37
2023/01/24 07:26:00;;;;;;;;;;;;;;;24.00;50.36;101473.97;7313010;19;130250;-38
2023/01/24 07:28:25;;;;;;;30.63;6.88;;;;;;;24.13;50.60;101469.50;7311310;19;128975;-37
2023/01/24 07:30:54;;;;;;;27.20;7.00;;;;;;;24.13;49.97;101469.50;7314658;19;129633;-39
2023/01/24 07:33:19;;;;;;;25.02;7.03;;;;;;;24.10;50.23;101464.47;7313450;19;129718;-37
2023/01/24 07:35:45;;;;;;;31.20;7.43;;;;;;;24.16;50.15;101471.91;7312299;19;129119;-38
2023/01/24 07:38:11;;;;;;;29.90;7.43;;;;;;;24.10;50.65;101474.97;7313845;19;128922;-38
2023/01/24 07:40:38;;;;;;;26.23;7.00;;;;;;;23.98;50.43;101480.28;7314095;19;130157;-38
2023/01/24 07:43:04;;;;;;;47.03;9.20;;;;;;;23.92;51.19;101488.56;7311432;19;129262;-39
2023/01/24 07:45:30;;;;;;;52.80;9.18;;;;;;;23.87;51.12;101473.13;7311653;19;129026;-39
2023/01/24 07:47:59;;;;;;;31.65;7.28;;;;;;;23.89;51.16;101486.16;7313966;19;128919;-38
2023/01/24 07:50:25;;;;;;;15.68;5.97;;;;;;;23.82;51.06;101492.78;7313886;19;131345;-38
2023/01/24 07:52:54;;;;;;;29.63;7.63;;;;;;;23.88;51.03;101495.81;7313583;19;129143;-39
2023/01/24 07:55:20;;;;;;;60.85;10.20;;;;;;;23.95;50.65;101497.06;7309091;19;129828;-38
2023/01/24 07:57:46;;;;;;;28.92;7.15;;;;;;;24.06;50.33;101494.56;7313134;19;128880;-38
2023/01/24 08:00:12;;;;;;;24.47;6.37;;;;;;;24.02;50.47;101498.34;7313493;19;129941;-39
2023/01/24 08:02:37;;;;;;;13.40;5.33;;;;;;;24.14;50.36;101502.72;7311831;19;130897;-40
2023/01/24 08:05:03;;;;;;;26.70;6.87;;;;;;;24.11;50.71;101500.28;7310271;19;128953;-37
2023/01/24 08:07:28;;;;;;;46.70;8.70;;;;;;;24.22;50.11;101505.66;7310290;19;129594;-39
2023/01/24 08:09:53;;;;;;;29.20;7.03;;;;;;;24.12;49.76;101503.78;7312359;19;129603;-38
2023/01/24 08:12:19;;;;;;;21.80;6.10;;;;;;;24.03;50.91;101513.16;7310219;19;129858;-40
2023/01/24 08:14:45;;;;;;;40.20;7.80;;;;;;;23.96;50.78;101514.53;7307206;19;129362;-36
2023/01/24 08:17:10;;;;;;;32.93;7.57;;;;;;;23.93;51.08;101513.91;7309585;19;129133;-38
2023/01/24 08:19:35;;;;;;;32.97;7.43;;;;;;;23.92;51.41;101522.72;7309552;19;130804;-39
2023/01/24 08:22:02;;;;;;;37.57;7.57;;;;;;;23.83;51.06;101521.56;7309813;19;129525;-37
2023/01/24 08:24:28;;;;;;;31.88;7.65;;;;;;;23.96;50.72;101522.41;7307850;19;129205;-39
2023/01/24 08:26:53;;;;;;;51.50;8.33;;;;;;;23.96;51.01;101525.03;7308458;19;129263;-37
2023/01/24 08:29:19;;;;;;;35.87;6.97;;;;;;;23.93;51.23;101533.09;7309223;19;129467;-39
2023/01/24 08:31:44;;;;;;;25.70;6.37;;;;;;;23.99;50.51;101531.88;7310440;19;130862;-38
2023/01/24 08:34:10;;;;;;;46.60;8.30;;;;;;;24.04;50.29;101528.00;7308674;19;129757;-39
2023/01/24 08:36:35;;;;;;;52.67;8.30;;;;;;;24.08;50.58;101534.69;7308974;19;129102;-39
2023/01/24 08:39:02;;;;;;;26.53;7.10;;;;;;;24.14;50.83;101531.66;7310367;19;129354;-40
2023/01/24 08:41:28;;;;;;;36.25;7.55;;;;;;;24.08;50.65;101537.31;7312283;19;129339;-37
2023/01/24 08:43:53;;;;;;;30.37;6.97;;;;;;;24.00;51.29;101542.28;7309674;19;128846;-37
2023/01/24 08:46:19;;;;;;;23.13;6.40;;;;;;;23.88;50.74;101540.47;7311499;19;129856;-38
2023/01/24 08:48:44;;;;;;;23.13;6.55;;;;;;;23.78;51.02;101542.09;7306712;19;129707;-37
2023/01/24 08:51:09;;;;;;;36.53;7.57;;;;;;;23.73;51.56;101544.19;7312080;19;130376;-39
2023/01/24 08:53:35;;;;;;;33.87;6.90;;;;;;;23.73;51.68;101544.19;7310504;19;129666;-39
2023/01/24 08:56:00;;;;;;;27.30;6.43;;;;;;;23.72;51.71;101544.28;7310631;19;129206;-39
2023/01/24 08:58:25;;;;;;;50.53;8.90;;;;;;;23.76;51.67;101546.59;7309401;19;129110;-39
2023/01/24 09:00:51;;;;;;;77.65;12.77;;;;;;;23.81;51.65;101541.88;7307064;19;129297;-39
2023/01/24 09:03:18;;;;;;;23.93;6.30;;;;;;;23.77;50.62;101524.63;7312669;19;129505;-37
2023/01/24 09:05:43;;;;;;;26.10;7.13;;;;;;;23.90;50.61;101540.38;7309595;19;129187;-39
2023/01/24 09:08:09;;;;;;;19.93;5.60;;;;;;;23.88;50.77;101537.84;7309460;19;130153;-38
2023/01/24 09:10:35;;;;;;;47.13;8.13;;;;;;;23.95;50.99;101538.25;7311243;19;130132;-41
2023/01/24 09:13:01;;;;;;;28.55;7.10;;;;;;;23.93;50.70;101545.44;7311458;19;128829;-38
2023/01/24 09:15:26;;;;;;;60.45;10.75;;;;;;;23.90;50.91;101541.22;7307702;19;130277;-40
2023/01/24 09:17:52;;;;;;;23.63;6.43;;;;;;;23.69;51.49;101526.94;7311336;19;130277;-40
2023/01/24 09:20:18;;;;;;;38.87;7.60;;;;;;;23.72;51.63;101541.63;7311048;19;130475;-38
2023/01/24 09:22:44;;;;;;;16.33;5.65;;;;;;;23.75;51.18;101533.56;7312555;19;129673;-37
2023/01/24 09:25:09;;;;;;;21.80;6.40;;;;;;;23.72;51.08;101531.97;7309497;19;129597;-39
2023/01/24 09:27:36;;;;;;;27.83;7.00;;;;;;;23.78;51.03;101542.09;7308436;19;130145;-40
2023/01/24 09:30:01;;;;;;;38.80;7.80;;;;;;;23.68;51.46;101525.28;7310782;19;130257;-38
2023/01/24 09:32:26;;;;;;;24.57;6.60;;;;;;;23.76;51.21;101541.34;7311603;19;129670;-41
2023/01/24 09:34:52;;;;;;;29.23;6.50;;;;;;;23.86;50.82;101534.50;7308554;19;129283;-39
2023/01/24 09:37:18;;;;;;;41.67;7.50;;;;;;;23.85;51.38;101532.81;7310407;19;129934;-39
2023/01/24 09:39:44;;;;;;;36.72;7.25;;;;;;;23.89;51.04;101538.69;7311759;19;129168;-38
2023/01/24 09:42:39;;;;;;;29.77;6.97;;;;;;;23.81;51.20;101541.88;7311116;19;129794;-41
2023/01/24 09:45:22;;;;;;;22.58;6.32;;;;;;;23.72;51.71;101542.50;7308634;19;129537;-38
2023/01/24 09:47:48;;;;;;;19.90;6.13;;;;;;;23.67;51.33;101549.84;7309657;19;129281;-39
2023/01/24 09:50:27;;;;;;;22.73;6.27;;;;;;;23.61;51.76;101541.56;7310945;19;130517;-39
2023/01/24 09:52:55;;;;;;;20.23;6.05;;;;;;;23.63;51.74;101542.28;7310780;19;129258;-40
2023/01/24 09:55:40;;;;;;;63.72;10.32;;;;;;;23.67;52.14;101546.41;7306415;19;129373;-40
2023/01/24 09:58:30;;;;;;;32.20;7.43;;;;;;;23.69;51.53;101541.84;7310443;19;129622;-39
2023/01/24 10:00:58;;;;;;;30.55;6.70;;;;;;;23.68;51.37;101522.66;7310429;19;130851;-40
2023/01/24 10:03:24;;;;;;;68.10;10.63;;;;;;;23.81;51.07;101536.63;7308711;19;129263;-37
2023/01/24 10:06:15;;;;;;;22.03;6.47;;;;;;;23.81;50.95;101536.63;7308045;19;130224;-40
2023/01/24 10:09:02;;;;;;;52.90;9.32;;;;;;;23.87;51.60;101543.19;7306819;19;132935;-39
2023/01/24 10:11:49;;;;;;;25.47;6.43;;;;;;;23.94;51.27;101532.19;7310052;19;130519;-38
2023/01/24 10:14:37;;;;;;;30.80;7.13;;;;;;;23.85;50.94;101530.19;7305878;19;129781;-37
2023/01/24 10:17:02;;;;;;;22.63;5.82;;;;;;;23.82;51.59;101534.81;7309847;19;129359;-41
2023/01/24 10:19:43;;;;;;;34.00;7.13;;;;;;;23.76;51.81;101541.34;7309079;19;129602;-39
2023/01/24 10:22:32;;;;;;;20.42;6.20;;;;;;;23.67;51.86;101534.09;7310332;19;129726;-39
2023/01/24 10:25:07;;;;;;;29.23;7.15;;;;;;;23.67;51.88;101528.03;7305391;19;129602;-39
2023/01/24 10:27:38;;;;;;;45.05;8.52;;;;;;;23.64;51.94;101529.06;7313760;19;130255;-40
2023/01/24 10:30:18;;;;;;;37.83;7.50;;;;;;;23.69;51.75;101519.06;7317684;19;130336;-39
2023/01/24 10:32:45;;;;;;;22.67;6.18;;;;;;;23.73;51.15;101523.19;7316908;19;130447;-37
2023/01/24 10:35:14;;;;;;;15.85;5.68;;;;;;;23.74;51.73;101524.00;7314210;19;129109;-38
2023/01/24 10:37:44;;;;;;;26.35;7.05;;;;;;;23.80;51.66;101521.78;7316499;19;129515;-39
2023/01/24 10:40:15;;;;;;;14.88;5.90;;;;;;;23.79;51.34;101522.75;7315385;19;129945;-40
2023/01/24 10:42:41;;;;;;;38.72;7.15;;;;;;;23.71;51.24;101514.56;7315011;19;129915;-37
2023/01/24 10:45:29;;;;;;;9.67;5.63;;;;;;;23.65;51.69;101512.34;7314151;19;129472;-40
2023/01/24 10:48:01;;;;;;;;;;;;;;;23.64;52.14;101518.56;7312989;19;129862;-39
2023/01/24 10:50:34;;;;;;;24.80;6.47;;;;;;;23.55;51.90;101529.69;7317260;19;130063;-39
2023/01/24 10:53:13;;;;;;;21.60;5.88;;;;;;;23.57;51.97;101525.16;7315212;19;129992;-40
2023/01/24 10:55:39;;;;;;;33.05;7.78;;;;;;;23.66;51.67;101515.81;7314031;19;129323;-40
2023/01/24 10:58:23;;;;;;;37.27;6.97;;;;;;;23.66;52.00;101514.03;7316510;19;129944;-38
2023/01/24 11:00:57;;;;;;;25.63;6.35;;;;;;;23.70;51.22;101507.59;7316144;19;129803;-37
2023/01/24 11:03:25;;;;;;;36.90;7.38;;;;;;;23.74;51.88;101508.25;7314988;19;129190;-40
2023/01/24 11:05:53;;;;;;;15.27;5.85;;;;;;;23.79;51.58;101512.22;7313151;19;129072;-41
2023/01/24 11:08:33;;;;;;;25.65;6.38;;;;;;;23.80;51.63;101507.84;7314282;19;130294;-39
2023/01/24 11:10:58;;;;;;;34.85;7.72;;;;;;;23.90;51.45;101504.44;7314207;19;130201;-41
2023/01/24 11:13:38;;;;;;;40.50;7.57;;;;;;;23.86;51.51;101508.25;7314347;19;129775;-37
2023/01/24 11:16:21;;;;;;;29.95;7.28;;;;;;;23.89;51.25;101508.00;7312249;19;129579;-39
2023/01/24 11:18:51;;;;;;;16.75;6.13;;;;;;;23.86;51.44;101497.72;7314988;19;128797;-40
2023/01/24 11:21:19;;;;;;;25.63;6.90;;;;;;;23.68;51.34;101483.25;7314679;19;129758;-39
2023/01/24 11:23:44;;;;;;;38.67;7.68;;;;;;;23.70;51.58;101504.16;7312811;19;129745;-38
2023/01/24 11:26:29;;;;;;;24.13;5.80;;;;;;;23.63;51.79;101501.13;7313455;19;129057;-38
2023/01/24 11:29:00;;;;;;;35.00;7.07;;;;;;;23.70;51.70;101507.59;7312335;19;129703;-38
2023/01/24 11:31:28;;;;;;;33.35;7.20;;;;;;;23.70;52.03;101504.16;7311107;19;129503;-38
2023/01/24 11:34:22;;;;;;;45.22;8.23;;;;;;;23.68;51.36;101501.66;7313652;19;129855;-40
2023/01/24 11:37:04;;;;;;;21.42;5.88;;;;;;;23.77;51.30;101498.38;7310339;19;129376;-38
2023/01/24 11:39:47;;;;;;;28.33;6.85;;;;;;;23.74;51.48;101503.84;7315433;19;129502;-39
2023/01/24 11:42:36;;;;;;;27.90;6.90;;;;;;;23.83;51.32;101499.72;7315479;19;130587;-40
2023/01/24 11:45:07;;;;;;;29.60;6.70;;;;;;;23.79;51.70;101496.47;7311793;19;131801;-39
2023/01/24 11:47:37;;;;;;;34.75;8.10;;;;;;;23.75;51.74;101495.00;7312392;19;128956;-37
2023/01/24 11:50:25;;;;;;;28.70;7.05;;;;;;;23.66;51.81;101494.81;7314708;19;129026;-39
2023/01/24 11:53:00;;;;;;;23.40;6.50;;;;;;;23.59;51.75;101483.88;7312729;19;129127;-38
2023/01/24 11:56:04;;;;;;;63.10;11.50;;;;;;;23.47;52.13;101484.72;7309530;19;131128;-39